createdAt,value
2022-10-08T00:01:25.640Z,98282.62
2022-10-08T00:03:54.478Z,98279.73
2022-10-08T00:06:29.386Z,98269.81
2022-10-08T00:09:05.141Z,98269.05
2022-10-08T00:11:37.474Z,98271.80
2022-10-08T00:14:06.606Z,98267.81
2022-10-08T00:16:38.731Z,98263.78
2022-10-08T00:19:14.784Z,98257.38
2022-10-08T00:21:45.383Z,98258.45
2022-10-08T00:24:18.080Z,98257.11
2022-10-08T00:26:47.559Z,98256.04
2022-10-08T00:29:19.463Z,98248.78
2022-10-08T00:31:50.224Z,98246.38
2022-10-08T00:34:22.848Z,98246.38
2022-10-08T00:36:53.092Z,98247.51
2022-10-08T00:39:23.625Z,98256.14
2022-10-08T00:41:54.428Z,98254.66
2022-10-08T00:44:52.527Z,98245.05
2022-10-08T00:47:28.560Z,98246.98
2022-10-08T00:50:01.767Z,98243.81
2022-10-08T00:52:34.495Z,98232.63
2022-10-08T00:55:06.310Z,98235.09
2022-10-08T00:57:35.483Z,98230.06
2022-10-08T01:00:12.097Z,98231.74
2022-10-08T01:02:40.451Z,98226.38
2022-10-08T01:05:09.964Z,98223.73
2022-10-08T01:07:59.855Z,98224.83
2022-10-08T01:10:44.237Z,98221.88
2022-10-08T01:13:25.994Z,98219.49
2022-10-08T01:16:14.161Z,98215.77
2022-10-08T01:18:59.354Z,98211.48
2022-10-08T01:21:47.710Z,98208.24
2022-10-08T01:25:09.879Z,98209.09
2022-10-08T01:27:45.307Z,98206.45
2022-10-08T01:30:17.926Z,98213.95
2022-10-08T01:32:57.092Z,98209.68
2022-10-08T01:35:32.744Z,98199.77
2022-10-08T01:38:06.617Z,98204.89
2022-10-08T01:40:38.313Z,98204.66
2022-10-08T01:43:10.355Z,98203.34
2022-10-08T01:45:56.531Z,98203.06
2022-10-08T01:48:28.745Z,98203.61
2022-10-08T01:51:03.806Z,98202.00
2022-10-08T01:53:36.779Z,98202.55
2022-10-08T01:56:08.784Z,98200.96
2022-10-08T01:58:50.435Z,98201.75
2022-10-08T02:01:41.623Z,98208.45
2022-10-08T02:04:27.886Z,98201.52
2022-10-08T02:06:57.924Z,98200.44
2022-10-08T02:09:28.370Z,98195.39
2022-10-08T02:11:57.125Z,98195.94
2022-10-08T02:14:27.681Z,98197.30
2022-10-08T02:17:06.909Z,98201.36
2022-10-08T02:20:00.924Z,98193.09
2022-10-08T02:22:36.392Z,98197.17
2022-10-08T02:25:14.731Z,98190.29
2022-10-08T02:27:56.709Z,98194.34
2022-10-08T02:30:25.140Z,98194.91
2022-10-08T02:33:00.873Z,98195.77
2022-10-08T02:35:33.316Z,98195.79
2022-10-08T02:38:11.499Z,98199.29
2022-10-08T02:40:42.324Z,98201.48
2022-10-08T02:43:15.704Z,98203.37
2022-10-08T02:45:48.737Z,98203.64
2022-10-08T02:48:32.414Z,98198.06
2022-10-08T02:51:07.491Z,98199.16
2022-10-08T02:53:38.094Z,98194.34
2022-10-08T02:56:46.277Z,98195.16
2022-10-08T02:59:17.829Z,98193.82
2022-10-08T03:01:55.316Z,98195.71
2022-10-08T03:04:34.541Z,98195.47
2022-10-08T03:07:02.607Z,98191.47
2022-10-08T03:09:39.848Z,98189.61
2022-10-08T03:12:07.684Z,98186.69
2022-10-08T03:14:42.748Z,98187.23
2022-10-08T03:17:14.446Z,98187.53
2022-10-08T03:19:42.038Z,98188.05
2022-10-08T03:22:10.131Z,98191.03
2022-10-08T03:24:37.497Z,98191.33
2022-10-08T03:27:05.170Z,98195.34
2022-10-08T03:29:32.855Z,98192.14
2022-10-08T03:32:00.117Z,98189.77
2022-10-08T03:34:27.751Z,98193.02
2022-10-08T03:36:55.132Z,98191.16
2022-10-08T03:39:22.805Z,98189.57
2022-10-08T03:41:50.956Z,98186.92
2022-10-08T03:44:18.666Z,98186.94
2022-10-08T03:46:46.309Z,98186.17
2022-10-08T03:49:13.998Z,98182.47
2022-10-08T03:51:41.800Z,98183.27
2022-10-08T03:54:09.492Z,98190.51
2022-10-08T03:56:36.925Z,98183.81
2022-10-08T03:59:04.376Z,98178.45
2022-10-08T04:01:31.967Z,98183.56
2022-10-08T04:03:59.954Z,98173.95
2022-10-08T04:06:27.443Z,98172.88
2022-10-08T04:08:56.871Z,98179.08
2022-10-08T04:11:25.278Z,98175.09
2022-10-08T04:13:52.734Z,98174.86
2022-10-08T04:16:20.434Z,98164.72
2022-10-08T04:18:48.617Z,98165.81
2022-10-08T04:21:18.174Z,98164.73
2022-10-08T04:23:49.843Z,98164.73
2022-10-08T04:26:18.027Z,98169.03
2022-10-08T04:28:47.590Z,98177.86
2022-10-08T04:31:18.756Z,98176.25
2022-10-08T04:33:47.472Z,98172.83
2022-10-08T04:36:24.254Z,98175.50
2022-10-08T04:38:52.078Z,98169.63
2022-10-08T04:41:25.501Z,98174.75
2022-10-08T04:43:56.793Z,98176.11
2022-10-08T04:46:24.521Z,98172.89
2022-10-08T04:48:54.821Z,98169.64
2022-10-08T04:51:26.139Z,98171.20
2022-10-08T04:53:55.351Z,98174.64
2022-10-08T04:56:27.162Z,98167.57
2022-10-08T04:58:56.312Z,98165.69
2022-10-08T05:01:26.120Z,98168.34
2022-10-08T05:03:55.976Z,98155.97
2022-10-08T05:06:28.061Z,98159.42
2022-10-08T05:08:59.709Z,98160.95
2022-10-08T05:11:28.183Z,98157.33
2022-10-08T05:13:58.079Z,98154.45
2022-10-08T05:16:26.738Z,98153.45
2022-10-08T05:18:56.181Z,98149.57
2022-10-08T05:21:28.191Z,98155.42
2022-10-08T05:24:07.024Z,98157.94
2022-10-08T05:26:58.669Z,98155.83
2022-10-08T05:29:10.987Z,98155.72
2022-10-08T05:31:39.962Z,98155.82
2022-10-08T05:34:07.751Z,98160.25
2022-10-08T05:36:40.183Z,98161.09
2022-10-08T05:39:07.794Z,98155.15
2022-10-08T05:41:36.918Z,98160.29
2022-10-08T05:44:06.070Z,98165.81
2022-10-08T05:46:36.777Z,98168.28
2022-10-08T05:49:08.145Z,98159.09
2022-10-08T05:51:37.502Z,98160.22
2022-10-08T05:54:05.323Z,98162.64
2022-10-08T05:56:33.049Z,98156.63
2022-10-08T05:59:01.035Z,98162.91
2022-10-08T06:01:34.390Z,98161.75
2022-10-08T06:04:09.077Z,98161.55
2022-10-08T06:06:39.620Z,98160.77
2022-10-08T06:09:12.400Z,98163.91
2022-10-08T06:11:42.226Z,98163.48
2022-10-08T06:14:16.616Z,98164.73
2022-10-08T06:16:44.771Z,98175.04
2022-10-08T06:19:14.339Z,98172.80
2022-10-08T06:21:42.150Z,98172.67
2022-10-08T06:24:11.657Z,98174.13
2022-10-08T06:26:42.307Z,98172.56
2022-10-08T06:29:18.464Z,98171.30
2022-10-08T06:31:47.651Z,98174.91
2022-10-08T06:34:15.923Z,98174.66
2022-10-08T06:36:43.787Z,98176.22
2022-10-08T06:39:13.950Z,98175.62
2022-10-08T06:41:44.819Z,98167.00
2022-10-08T06:44:15.003Z,98166.10
2022-10-08T06:46:43.937Z,98167.52
2022-10-08T06:49:12.755Z,98168.00
2022-10-08T06:51:40.479Z,98168.77
2022-10-08T06:54:08.821Z,98166.63
2022-10-08T06:56:38.147Z,98156.53
2022-10-08T06:59:07.360Z,98160.69
2022-10-08T07:01:35.484Z,98155.73
2022-10-08T07:04:06.239Z,98153.34
2022-10-08T07:06:34.463Z,98156.98
2022-10-08T07:09:04.002Z,98154.09
2022-10-08T07:11:33.136Z,98155.41
2022-10-08T07:14:00.971Z,98154.34
2022-10-08T07:16:28.947Z,98154.48
2022-10-08T07:18:57.946Z,98154.92
2022-10-08T07:21:26.676Z,98153.24
2022-10-08T07:23:54.876Z,98152.45
2022-10-08T07:26:26.392Z,98145.52
2022-10-08T07:28:59.904Z,98140.28
2022-10-08T07:31:34.273Z,98141.34
2022-10-08T07:34:06.092Z,98136.81
2022-10-08T07:36:34.585Z,98139.55
2022-10-08T07:39:15.816Z,98137.03
2022-10-08T07:41:43.460Z,98136.89
2022-10-08T07:44:12.426Z,98134.95
2022-10-08T07:46:47.635Z,98127.05
2022-10-08T07:49:17.745Z,98126.59
2022-10-08T07:51:45.733Z,98116.95
2022-10-08T07:54:18.076Z,98122.20
2022-10-08T07:56:46.258Z,98116.27
2022-10-08T07:59:15.367Z,98119.64
2022-10-08T08:01:43.409Z,98115.98
2022-10-08T08:04:12.165Z,98114.42
2022-10-08T08:06:49.263Z,98113.30
2022-10-08T08:09:18.038Z,98114.26
2022-10-08T08:11:48.227Z,98113.36
2022-10-08T08:14:16.364Z,98117.51
2022-10-08T08:16:44.289Z,98114.95
2022-10-08T08:19:12.078Z,98101.83
2022-10-08T08:21:39.718Z,98108.84
2022-10-08T08:24:13.207Z,98113.22
2022-10-08T08:26:42.900Z,98108.08
2022-10-08T08:29:14.678Z,98108.80
2022-10-08T08:31:46.073Z,98104.84
2022-10-08T08:34:20.587Z,98099.37
2022-10-08T08:36:50.816Z,98094.44
2022-10-08T08:39:27.649Z,98092.94
2022-10-08T08:42:31.129Z,98086.36
2022-10-08T08:45:03.287Z,98085.86
2022-10-08T08:47:41.521Z,98083.14
2022-10-08T08:50:35.274Z,98078.41
2022-10-08T08:53:05.083Z,98080.33
2022-10-08T08:55:43.287Z,98074.30
2022-10-08T08:59:01.848Z,98076.31
2022-10-08T09:01:46.827Z,98069.37
2022-10-08T09:04:19.852Z,98065.89
2022-10-08T09:06:50.834Z,98057.87
2022-10-08T09:09:33.275Z,98060.26
2022-10-08T09:12:21.185Z,98066.17
2022-10-08T09:14:56.694Z,98061.45
2022-10-08T09:17:35.739Z,98057.72
2022-10-08T09:20:04.124Z,98054.80
2022-10-08T09:22:39.107Z,98048.55
2022-10-08T09:25:17.249Z,98042.87
2022-10-08T09:27:57.303Z,98046.40
2022-10-08T09:30:30.007Z,98039.52
2022-10-08T09:33:02.287Z,98038.12
2022-10-08T09:35:33.564Z,98034.97
2022-10-08T09:38:05.629Z,98033.20
2022-10-08T09:40:31.541Z,98033.18
2022-10-08T09:43:16.706Z,98026.90
2022-10-08T09:45:49.351Z,98029.86
2022-10-08T09:48:25.609Z,98025.57
2022-10-08T09:50:58.158Z,98017.55
2022-10-08T09:53:48.649Z,98016.53
2022-10-08T09:56:27.613Z,98011.39
2022-10-08T09:59:01.973Z,98009.66
2022-10-08T10:01:33.363Z,98011.02
2022-10-08T10:04:02.835Z,98003.73
2022-10-08T10:06:37.356Z,97995.89
2022-10-08T10:09:28.328Z,97994.54
2022-10-08T10:12:36.460Z,97984.16
2022-10-08T10:15:23.988Z,97975.70
2022-10-08T10:17:59.361Z,97979.84
2022-10-08T10:20:50.789Z,97973.75
2022-10-08T10:23:29.959Z,97969.05
2022-10-08T10:26:14.040Z,97970.80
2022-10-08T10:28:50.132Z,97965.08
2022-10-08T10:31:28.010Z,97965.27
2022-10-08T10:34:15.305Z,97965.47
2022-10-08T10:36:53.671Z,97958.87
2022-10-08T10:39:42.238Z,97957.52
2022-10-08T10:42:50.798Z,97948.09
2022-10-08T10:45:23.766Z,97945.94
2022-10-08T10:47:54.503Z,97941.42
2022-10-08T10:50:39.568Z,97941.42
2022-10-08T10:53:28.506Z,97935.13
2022-10-08T10:56:18.329Z,97937.26
2022-10-08T10:59:22.995Z,97924.33
2022-10-08T11:02:24.910Z,97922.17
2022-10-08T11:05:19.531Z,97926.90
2022-10-08T11:08:10.681Z,97919.06
2022-10-08T11:11:18.692Z,97916.73
2022-10-08T11:13:57.721Z,97911.81
2022-10-08T11:16:42.814Z,97904.53
2022-10-08T11:19:35.609Z,97896.59
2022-10-08T11:22:26.858Z,97893.91
2022-10-08T11:26:02.677Z,97888.21
2022-10-08T11:28:24.040Z,97888.80
2022-10-08T11:31:12.774Z,97883.09
2022-10-08T11:33:41.783Z,97875.22
2022-10-08T11:36:38.355Z,97872.69
2022-10-08T11:39:23.281Z,97872.88
2022-10-08T11:42:05.594Z,97867.38
2022-10-08T11:44:33.469Z,97866.20
2022-10-08T11:47:43.119Z,97860.15
2022-10-08T11:50:30.520Z,97855.84
2022-10-08T11:53:20.195Z,97850.74
2022-10-08T11:55:55.322Z,97850.32
2022-10-08T11:58:30.511Z,97853.64
2022-10-08T12:01:10.166Z,97842.45
2022-10-08T12:03:41.075Z,97841.27
2022-10-08T12:06:28.240Z,97833.86
2022-10-08T12:09:01.128Z,97835.86
2022-10-08T12:11:37.335Z,97835.70
2022-10-08T12:14:19.160Z,97829.61
2022-10-08T12:17:07.536Z,97829.03
2022-10-08T12:19:45.330Z,97824.34
2022-10-08T12:22:27.634Z,97822.96
2022-10-08T12:24:59.118Z,97815.48
2022-10-08T12:27:34.477Z,97805.52
2022-10-08T12:30:06.866Z,97816.27
2022-10-08T12:32:45.832Z,97805.88
2022-10-08T12:35:37.415Z,97802.94
2022-10-08T12:38:20.908Z,97805.87
2022-10-08T12:41:12.050Z,97799.60
2022-10-08T12:44:10.316Z,97799.81
2022-10-08T12:47:04.707Z,97798.31
2022-10-08T12:49:56.408Z,97790.89
2022-10-08T12:52:24.876Z,97792.45
2022-10-08T12:55:01.151Z,97794.04
2022-10-08T12:57:36.045Z,97788.73
2022-10-08T13:00:10.814Z,97781.47
2022-10-08T13:02:41.514Z,97785.58
2022-10-08T13:05:30.723Z,97788.53
2022-10-08T13:07:58.769Z,97782.26
2022-10-08T13:10:29.230Z,97784.62
2022-10-08T13:13:05.063Z,97778.73
2022-10-08T13:15:35.619Z,97774.45
2022-10-08T13:18:21.790Z,97769.95
2022-10-08T13:21:04.556Z,97774.87
2022-10-08T13:23:42.424Z,97770.57
2022-10-08T13:26:44.935Z,97764.33
2022-10-08T13:29:29.453Z,97767.27
2022-10-08T13:32:15.647Z,97765.52
2022-10-08T13:34:57.491Z,97771.00
2022-10-08T13:37:32.500Z,97767.49
2022-10-08T13:40:14.661Z,97767.47
2022-10-08T13:42:49.205Z,97772.56
2022-10-08T13:45:21.354Z,97764.72
2022-10-08T13:47:51.188Z,97762.97
2022-10-08T13:50:20.435Z,97761.38
2022-10-08T13:52:54.254Z,97762.55
2022-10-08T13:55:30.231Z,97752.91
2022-10-08T13:58:01.524Z,97759.92
2022-10-08T14:00:32.037Z,97756.39
2022-10-08T14:03:00.540Z,97746.41
2022-10-08T14:05:30.993Z,97746.98
2022-10-08T14:08:04.398Z,97747.57
2022-10-08T14:10:32.834Z,97744.83
2022-10-08T14:13:00.293Z,97739.33
2022-10-08T14:15:28.167Z,97734.81
2022-10-08T14:17:55.728Z,97738.70
2022-10-08T14:20:23.522Z,97732.44
2022-10-08T14:22:51.504Z,97727.73
2022-10-08T14:25:23.462Z,97725.00
2022-10-08T14:27:51.721Z,97720.11
2022-10-08T14:30:19.971Z,97724.78
2022-10-08T14:32:47.570Z,97722.02
2022-10-08T14:35:16.572Z,97723.55
2022-10-08T14:37:44.160Z,97719.19
2022-10-08T14:40:19.180Z,97726.38
2022-10-08T14:42:47.336Z,97728.70
2022-10-08T14:45:15.211Z,97726.72
2022-10-08T14:47:42.881Z,97725.69
2022-10-08T14:50:10.565Z,97722.94
2022-10-08T14:52:44.690Z,97720.95
2022-10-08T14:55:08.501Z,97716.05
2022-10-08T14:57:35.924Z,97718.73
2022-10-08T15:00:05.415Z,97716.15
2022-10-08T15:02:36.096Z,97720.80
2022-10-08T15:05:04.474Z,97716.30
2022-10-08T15:07:32.367Z,97717.39
2022-10-08T15:10:00.034Z,97718.53
2022-10-08T15:12:27.684Z,97720.03
2022-10-08T15:14:55.458Z,97723.27
2022-10-08T15:17:24.933Z,97718.14
2022-10-08T15:19:57.421Z,97724.09
2022-10-08T15:22:29.865Z,97720.13
2022-10-08T15:24:58.151Z,97724.92
2022-10-08T15:27:25.830Z,97727.95
2022-10-08T15:29:53.302Z,97732.34
2022-10-08T15:32:24.477Z,97739.67
2022-10-08T15:34:52.962Z,97736.61
2022-10-08T15:37:21.155Z,97736.67
2022-10-08T15:39:48.683Z,97736.81
2022-10-08T15:42:17.126Z,97739.31
2022-10-08T15:44:46.123Z,97738.50
2022-10-08T15:47:15.735Z,97737.66
2022-10-08T15:49:45.389Z,97737.25
2022-10-08T15:52:16.833Z,97737.03
2022-10-08T15:54:46.112Z,97735.18
2022-10-08T15:57:17.138Z,97734.54
2022-10-08T15:59:45.483Z,97732.50
2022-10-08T16:02:17.212Z,97739.19
2022-10-08T16:04:47.162Z,97736.41
2022-10-08T16:07:16.374Z,97739.88
2022-10-08T16:09:44.189Z,97741.91
2022-10-08T16:12:12.267Z,97744.20
2022-10-08T16:14:39.742Z,97742.18
2022-10-08T16:17:10.391Z,97744.67
2022-10-08T16:19:38.270Z,97751.36
2022-10-08T16:22:07.167Z,97751.25
2022-10-08T16:24:34.683Z,97749.81
2022-10-08T16:27:02.629Z,97749.48
2022-10-08T16:29:30.446Z,97753.42
2022-10-08T16:31:58.460Z,97756.88
2022-10-08T16:34:27.933Z,97754.05
2022-10-08T16:36:57.636Z,97757.48
2022-10-08T16:39:25.474Z,97751.42
2022-10-08T16:41:53.162Z,97754.19
2022-10-08T16:44:21.959Z,97758.48
2022-10-08T16:46:52.633Z,97761.22
2022-10-08T16:49:25.808Z,97763.31
2022-10-08T16:52:01.861Z,97756.67
2022-10-08T16:54:29.488Z,97758.97
2022-10-08T16:56:57.574Z,97757.53
2022-10-08T16:59:27.515Z,97760.39
2022-10-08T17:01:58.094Z,97764.02
2022-10-08T17:04:28.336Z,97760.53
2022-10-08T17:06:56.659Z,97764.59
2022-10-08T17:09:24.330Z,97767.09
2022-10-08T17:11:52.037Z,97774.43
2022-10-08T17:14:19.647Z,97775.89
2022-10-08T17:16:49.162Z,97770.72
2022-10-08T17:19:17.252Z,97770.84
2022-10-08T17:21:45.030Z,97777.25
2022-10-08T17:24:12.978Z,97778.95
2022-10-08T17:26:41.543Z,97779.97
2022-10-08T17:29:11.241Z,97779.30
2022-10-08T17:31:39.979Z,97773.77
2022-10-08T17:34:08.075Z,97774.44
2022-10-08T17:36:39.276Z,97770.83
2022-10-08T17:39:11.270Z,97772.07
2022-10-08T17:41:40.878Z,97774.44
2022-10-08T17:44:10.511Z,97771.62
2022-10-08T17:46:45.410Z,97773.73
2022-10-08T17:49:14.669Z,97774.97
2022-10-08T17:51:42.903Z,97773.28
2022-10-08T17:54:14.893Z,97769.21
2022-10-08T17:56:42.811Z,97775.28
2022-10-08T17:59:14.369Z,97778.43
2022-10-08T18:01:45.036Z,97773.13
2022-10-08T18:04:15.062Z,97774.89
2022-10-08T18:06:45.875Z,97771.50
2022-10-08T18:09:18.031Z,97768.67
2022-10-08T18:11:50.766Z,97775.66
2022-10-08T18:14:19.826Z,97772.92
2022-10-08T18:16:48.691Z,97770.19
2022-10-08T18:19:17.427Z,97764.88
2022-10-08T18:21:45.604Z,97763.97
2022-10-08T18:24:13.823Z,97766.30
2022-10-08T18:26:42.030Z,97771.56
2022-10-08T18:29:13.102Z,97769.78
2022-10-08T18:31:43.270Z,97769.30
2022-10-08T18:34:16.934Z,97775.61
2022-10-08T18:36:46.532Z,97776.67
2022-10-08T18:39:18.441Z,97783.89
2022-10-08T18:41:50.358Z,97787.73
2022-10-08T18:44:21.979Z,97794.22
2022-10-08T18:46:50.821Z,97793.44
2022-10-08T18:49:23.393Z,97786.24
2022-10-08T18:51:51.290Z,97785.99
2022-10-08T18:54:19.188Z,97795.56
2022-10-08T18:56:47.110Z,97797.47
2022-10-08T18:59:17.048Z,97799.48
2022-10-08T19:01:47.410Z,97794.52
2022-10-08T19:04:19.561Z,97794.59
2022-10-08T19:06:52.488Z,97802.70
2022-10-08T19:09:21.119Z,97801.34
2022-10-08T19:11:52.437Z,97804.05
2022-10-08T19:14:22.507Z,97802.70
2022-10-08T19:16:51.680Z,97809.22
2022-10-08T19:19:24.770Z,97811.45
2022-10-08T19:21:53.862Z,97809.53
2022-10-08T19:24:24.655Z,97812.80
2022-10-08T19:26:53.872Z,97813.36
2022-10-08T19:29:27.432Z,97817.41
2022-10-08T19:31:55.805Z,97815.58
2022-10-08T19:34:26.594Z,97824.58
2022-10-08T19:36:54.623Z,97821.97
2022-10-08T19:39:26.998Z,97821.27
2022-10-08T19:41:54.705Z,97820.01
2022-10-08T19:44:22.338Z,97826.05
2022-10-08T19:46:50.317Z,97823.22
2022-10-08T19:49:18.815Z,97824.68
2022-10-08T19:51:46.785Z,97825.78
2022-10-08T19:54:14.940Z,97829.59
2022-10-08T19:56:42.519Z,97833.20
2022-10-08T19:59:11.341Z,97825.41
2022-10-08T20:01:40.735Z,97830.11
2022-10-08T20:04:09.838Z,97831.31
2022-10-08T20:06:40.545Z,97836.27
2022-10-08T20:09:12.470Z,97839.05
2022-10-08T20:11:43.608Z,97836.98
2022-10-08T20:14:13.514Z,97836.06
2022-10-08T20:16:43.028Z,97831.65
2022-10-08T20:19:18.834Z,97829.90
2022-10-08T20:21:47.509Z,97827.31
2022-10-08T20:24:17.269Z,97828.75
2022-10-08T20:26:45.071Z,97829.36
2022-10-08T20:29:21.616Z,97822.70
2022-10-08T20:31:54.479Z,97824.38
2022-10-08T20:34:30.034Z,97825.02
2022-10-08T20:37:00.374Z,97820.27
2022-10-08T20:39:28.407Z,97824.09
2022-10-08T20:41:57.761Z,97822.34
2022-10-08T20:44:25.402Z,97824.81
2022-10-08T20:46:53.100Z,97826.02
2022-10-08T20:49:20.793Z,97823.40
2022-10-08T20:51:48.707Z,97824.52
2022-10-08T20:54:17.254Z,97828.97
2022-10-08T20:56:45.304Z,97826.99
2022-10-08T20:59:18.478Z,97833.58
2022-10-08T21:01:46.761Z,97826.80
2022-10-08T21:04:14.415Z,97829.98
2022-10-08T21:06:48.148Z,97823.95
2022-10-08T21:09:18.554Z,97824.92
2022-10-08T21:11:46.562Z,97831.58
2022-10-08T21:14:22.748Z,97828.24
2022-10-08T21:16:50.571Z,97834.92
2022-10-08T21:19:23.413Z,97836.12
2022-10-08T21:21:51.736Z,97831.92
2022-10-08T21:24:19.560Z,97833.89
2022-10-08T21:26:47.636Z,97832.62
2022-10-08T21:29:15.480Z,97834.83
2022-10-08T21:31:43.338Z,97831.91
2022-10-08T21:34:12.751Z,97832.23
2022-10-08T21:36:41.628Z,97826.36
2022-10-08T21:39:16.183Z,97830.80
2022-10-08T21:41:45.168Z,97832.48
2022-10-08T21:44:14.077Z,97827.72
2022-10-08T21:46:42.456Z,97821.30
2022-10-08T21:49:23.504Z,97827.00
2022-10-08T21:51:51.884Z,97819.79
2022-10-08T21:54:19.588Z,97820.41
2022-10-08T21:56:47.234Z,97823.44
2022-10-08T21:59:16.161Z,97825.08
2022-10-08T22:01:47.658Z,97819.01
2022-10-08T22:04:19.616Z,97816.31
2022-10-08T22:06:51.767Z,97817.73
2022-10-08T22:09:26.155Z,97819.38
2022-10-08T22:11:56.321Z,97812.48
2022-10-08T22:14:24.351Z,97812.48
2022-10-08T22:16:52.883Z,97821.52
2022-10-08T22:19:20.815Z,97814.55
2022-10-08T22:21:48.508Z,97810.03
2022-10-08T22:24:16.534Z,97816.76
2022-10-08T22:26:47.075Z,97809.24
2022-10-08T22:29:15.808Z,97814.86
2022-10-08T22:31:43.969Z,97810.03
2022-10-08T22:34:12.504Z,97809.24
2022-10-08T22:36:43.126Z,97814.86
2022-10-08T22:39:11.272Z,97807.34
2022-10-08T22:41:39.135Z,97812.49
2022-10-08T22:44:07.122Z,97811.45
2022-10-08T22:46:38.445Z,97815.58
2022-10-08T22:49:10.154Z,97809.48
2022-10-08T22:51:38.956Z,97813.51
2022-10-08T22:54:07.409Z,97823.22
2022-10-08T22:56:35.349Z,97818.95
2022-10-08T22:59:04.186Z,97818.50
2022-10-08T23:01:32.094Z,97818.73
2022-10-08T23:03:59.973Z,97819.84
2022-10-08T23:06:33.712Z,97818.23
2022-10-08T23:09:05.949Z,97819.34
2022-10-08T23:11:34.656Z,97822.83
2022-10-08T23:14:02.803Z,97816.98
2022-10-08T23:16:32.984Z,97816.17
2022-10-08T23:19:08.115Z,97817.52
2022-10-08T23:21:36.822Z,97822.89
2022-10-08T23:24:05.616Z,97823.45
2022-10-08T23:26:35.447Z,97819.22
2022-10-08T23:29:04.047Z,97819.84
2022-10-08T23:31:35.140Z,97816.20
2022-10-08T23:34:04.916Z,97822.98
2022-10-08T23:36:39.980Z,97819.34
2022-10-08T23:39:14.046Z,97817.53
2022-10-08T23:41:42.048Z,97816.58
2022-10-08T23:44:11.547Z,97817.75
2022-10-08T23:46:39.106Z,97817.09
2022-10-08T23:49:06.914Z,97823.14
2022-10-08T23:51:35.397Z,97821.40
2022-10-08T23:54:03.189Z,97823.91
2022-10-08T23:56:30.735Z,97827.16
2022-10-08T23:58:59.575Z,97825.09
